EYSA/SQQ METAR and TAF weather

Enter ICAO airport designator
Station Type Date Time Source
EYSA METAR 2020/10/20 17:50 UTC NOAA

EYSA 201750Z 17008KT CAVOK 06/04 Q1020 BLU NOSIG


Station Type Date Time Source
EYSA Decoded METAR 2020/10/20 17:50 UTC NOAA

Siauliai Intl./Mil., Lithuania (EYSA) 55-53-38N 023-23-42E
Oct 20, 2020 - 01:50 PM EDT / 2020.10.20 1750 UTC
Wind: from the S (170 degrees) at 9 MPH (8 KT):0
Visibility: greater than 7 mile(s):0
Temperature: 42 F (6 C)
Dew Point: 39 F (4 C)
Relative Humidity: 86%
Pressure (altimeter): 30.12 in. Hg (1020 hPa)
ob: EYSA 201750Z 17008KT CAVOK 06/04 Q1020 BLU NOSIG
cycle: 18

Station Type Date Time Source
EYSA TAF 2020/10/17 06:03 UTC NOAA

TAF TAF EYSA 170500Z 1706/1718 04005KT 9000 BKN035

Example: see airport list